Terminal Aerodrome Forecast
Issued by NWS Dodge City, KS

Home | Current Version | Previous Version | Graphics & Text | Print | Product List | Glossary Off
Versions: 1 2 3 4 5 6 7 8 9 10 11 12

000
FTUS43 KDDC 211720
TAFDDC
TAF
KDDC 211720Z 2118/2218 12008KT P6SM SKC
     FM220000 06008KT P6SM VCSH OVC040
     FM220300 03012KT P6SM VCSH OVC015
     FM220800 35018G28KT P6SM VCSH BKN025
     FM221500 34018G28KT P6SM SCT070=

USA.gov is the U.S. government's official web portal to all federal, state and local government web resources and services.